Albert, Texas
Current Conditions -  °F | °C
As of 2:15 PM on Friday 21 Nov 2014 (Local Time) from KT82 Reporting Station
Broken Clouds Broken Clouds  
Wind Chill: 72°   Ceiling: 3000
Heat Index: 72°   Visibility: 10mi
Dew Point: 59°   Wind: 12mph
Humidity: 63%   Direction: 190°S
Pressure: 30.02"   Gusts: NA
Location:  30.2109°N, 98.6562°W
Report Text: KT82 212015Z AUTO 19010KT 10SM BKN030 BKN043 BKN050 22/15 A3002 RMK AO2 T02240150
Loading
Personal Weather Stations






























Interactive Weather Map New forecast layout! Learn more

10-Day Weather Forecast

Advertisements
Track Severe Weather on mobile